Time;durP1;ratioP1;P1;durP2;ratioP2;P2;SDS_P1;SDS_P2;PMS_P1;PMS_P2;Temp;Humidity;BMP_temperature;BMP_pressure;BME280_temperature;BME280_humidity;BME280_pressure;Samples;Min_cycle;Max_cycle;Signal;HPM_P1;HPM_P2
2021/04/13 00:02:21;;;;;;;5.67;2.27;;;20.60;57.80;;;;;;5072200;28;20032;-66
2021/04/13 00:04:51;;;;;;;5.47;1.95;;;20.70;57.60;;;;;;5072062;28;20086;-66
2021/04/13 00:07:22;;;;;;;4.07;2.08;;;20.70;57.80;;;;;;5071226;28;20040;-63
2021/04/13 00:09:50;;;;;;;7.45;2.55;;;20.80;56.10;;;;;;5071757;28;20045;-68
2021/04/13 00:12:31;;;;;;;4.38;1.70;;;20.80;54.90;;;;;;5071676;28;20032;-68
2021/04/13 00:15:05;;;;;;;5.13;2.42;;;21.00;55.00;;;;;;5070598;28;20147;-63
2021/04/13 00:17:33;;;;;;;5.90;2.58;;;21.10;55.00;;;;;;5071142;28;20470;-60
2021/04/13 00:20:28;;;;;;;4.18;2.17;;;21.10;55.30;;;;;;5070048;28;20127;-65
2021/04/13 00:22:56;;;;;;;6.18;1.58;;;21.20;54.80;;;;;;5071642;28;20037;-59
2021/04/13 00:25:32;;;;;;;2.88;1.60;;;21.30;54.50;;;;;;5070643;28;20025;-66
2021/04/13 00:27:59;;;;;;;4.85;1.55;;;21.20;56.40;;;;;;5071191;28;20433;-59
2021/04/13 00:30:38;;;;;;;4.07;1.73;;;21.30;54.70;;;;;;5071813;28;20452;-61
2021/04/13 00:33:06;;;;;;;7.22;1.67;;;21.40;55.50;;;;;;5071614;28;20032;-65
2021/04/13 00:35:43;;;;;;;4.22;2.28;;;21.40;53.20;;;;;;5072541;28;20409;-65
2021/04/13 00:38:31;;;;;;;5.30;1.67;;;21.50;54.70;;;;;;5076775;28;20364;-62
2021/04/13 00:41:27;;;;;;;3.10;1.52;;;21.60;53.10;;;;;;5071239;28;20055;-63
2021/04/13 00:44:04;;;;;;;5.28;1.40;;;21.60;53.80;;;;;;5061682;28;20044;-61
2021/04/13 00:46:47;;;;;;;3.65;1.85;;;21.70;54.40;;;;;;5071522;28;20032;-66
2021/04/13 00:49:17;;;;;;;3.00;1.55;;;21.70;52.90;;;;;;5071617;28;20052;-68
2021/04/13 00:51:50;;;;;;;7.75;2.00;;;21.70;54.40;;;;;;5071625;28;20507;-64
2021/04/13 00:54:37;;;;;;;5.07;2.13;;;21.80;54.70;;;;;;5071445;28;20448;-62
2021/04/13 00:57:12;;;;;;;3.50;1.83;;;21.80;54.60;;;;;;5060996;28;20025;-63
2021/04/13 00:59:41;;;;;;;5.88;1.63;;;21.90;53.30;;;;;;5069597;28;20036;-63
2021/04/13 01:02:14;;;;;;;6.05;1.67;;;22.00;53.50;;;;;;5070928;28;20482;-65
2021/04/13 01:04:52;;;;;;;2.35;1.50;;;22.00;52.90;;;;;;5070178;28;20097;-64
2021/04/13 01:07:53;;;;;;;3.63;1.55;;;22.10;54.00;;;;;;5058594;28;20024;-67
2021/04/13 01:10:33;;;;;;;4.05;1.65;;;22.00;55.10;;;;;;5053913;28;20132;-66
2021/04/13 01:13:16;;;;;;;3.95;1.77;;;22.10;54.90;;;;;;5070733;28;20024;-67
2021/04/13 01:15:47;;;;;;;1.77;1.30;;;22.20;54.80;;;;;;5070686;28;20040;-63
2021/04/13 01:18:22;;;;;;;4.60;1.53;;;22.20;55.40;;;;;;5071129;28;20040;-69
2021/04/13 01:21:04;;;;;;;3.42;1.42;;;22.10;55.00;;;;;;5071272;28;20021;-65
2021/04/13 01:23:44;;;;;;;3.95;1.83;;;22.10;53.40;;;;;;5071241;28;20041;-62
2021/04/13 01:26:11;;;;;;;4.97;1.70;;;22.20;55.00;;;;;;5070359;28;20043;-61
2021/04/13 01:28:40;;;;;;;2.15;1.35;;;22.20;54.70;;;;;;5071566;28;20024;-61
2021/04/13 01:31:15;;;;;;;3.67;1.50;;;22.20;54.80;;;;;;5069807;28;20039;-64
2021/04/13 01:33:48;;;;;;;1.85;1.02;;;22.40;51.90;;;;;;5070672;28;20043;-63
2021/04/13 01:36:41;;;;;;;2.65;1.50;;;22.20;54.00;;;;;;5070326;28;20090;-64
2021/04/13 01:39:19;;;;;;;5.72;1.77;;;22.30;54.70;;;;;;5069736;28;20028;-64
2021/04/13 01:41:59;;;;;;;2.58;1.40;;;22.30;54.70;;;;;;5069782;28;20549;-64
2021/04/13 01:44:51;;;;;;;2.25;1.40;;;22.40;54.40;;;;;;5060970;28;20033;-65
2021/04/13 01:47:27;;;;;;;4.37;1.30;;;22.40;54.50;;;;;;5065950;28;20436;-66
2021/04/13 01:50:05;;;;;;;2.75;1.42;;;22.50;54.10;;;;;;5071300;28;20304;-62
2021/04/13 01:52:39;;;;;;;7.25;2.05;;;22.60;52.40;;;;;;5066058;28;20478;-63
2021/04/13 01:55:22;;;;;;;5.72;1.73;;;22.70;51.20;;;;;;5064372;28;20471;-64
2021/04/13 01:57:49;;;;;;;5.68;1.60;;;22.90;51.00;;;;;;5067751;28;20054;-67
2021/04/13 02:00:23;;;;;;;7.07;1.60;;;22.90;51.70;;;;;;5069738;28;20037;-66
2021/04/13 02:03:37;;;;;;;1.63;1.20;;;22.70;53.60;;;;;;5067163;28;20170;-60
2021/04/13 02:06:21;;;;;;;6.70;1.90;;;22.80;53.00;;;;;;5055166;28;20032;-72
2021/04/13 02:09:00;;;;;;;5.93;1.88;;;22.80;52.90;;;;;;5068262;28;20094;-56
2021/04/13 02:11:34;;;;;;;4.93;1.52;;;22.80;52.90;;;;;;5068930;28;20032;-60
2021/04/13 02:14:16;;;;;;;3.25;1.10;;;23.00;52.30;;;;;;5067644;28;20479;-56
2021/04/13 02:16:52;;;;;;;7.47;1.73;;;23.10;52.50;;;;;;5063841;28;20487;-66
2021/04/13 02:19:21;;;;;;;2.55;1.40;;;23.10;51.40;;;;;;5069258;28;20032;-63
2021/04/13 02:22:08;;;;;;;5.05;1.40;;;23.20;52.50;;;;;;5067484;28;20473;-61
2021/04/13 02:24:38;;;;;;;4.82;1.60;;;23.10;51.40;;;;;;5065944;28;20032;-65
2021/04/13 02:27:28;;;;;;;2.03;0.98;;;23.30;52.00;;;;;;5063959;28;20051;-64
2021/04/13 02:30:08;;;;;;;2.80;1.45;;;23.30;52.60;;;;;;5069111;28;20125;-66
2021/04/13 02:32:47;;;;;;;3.13;1.40;;;23.30;52.40;;;;;;5061614;28;20079;-65
2021/04/13 02:35:42;;;;;;;18.50;13.65;;;23.30;53.00;;;;;;5063306;28;20278;-66
2021/04/13 02:38:30;;;;;;;5.78;2.65;;;23.50;50.40;;;;;;5049905;28;20124;-65
2021/04/13 02:41:16;;;;;;;3.67;1.30;;;23.60;51.70;;;;;;5068503;28;21247;-63
2021/04/13 02:43:49;;;;;;;3.45;1.58;;;23.50;52.10;;;;;;5064854;28;20033;-66
2021/04/13 02:46:28;;;;;;;2.70;1.15;;;23.50;51.90;;;;;;5061430;28;20078;-65
2021/04/13 02:49:09;;;;;;;3.15;1.30;;;23.60;51.70;;;;;;5068317;28;20067;-66
2021/04/13 02:51:44;;;;;;;3.00;1.33;;;23.60;52.00;;;;;;5062883;28;20029;-65
2021/04/13 02:54:44;;;;;;;2.45;1.10;;;23.60;52.00;;;;;;5065999;28;20078;-60
2021/04/13 02:57:23;;;;;;;2.65;1.10;;;23.60;51.80;;;;;;5033186;28;20045;-63
2021/04/13 02:59:57;;;;;;;5.88;1.38;;;23.70;51.90;;;;;;5067918;28;20025;-61
2021/04/13 03:02:36;;;;;;;4.90;1.50;;;23.60;51.30;;;;;;5067951;28;20055;-59
2021/04/13 03:05:05;;;;;;;3.50;1.25;;;23.70;51.70;;;;;;5063699;28;20086;-68
2021/04/13 03:07:37;;;;;;;4.72;1.38;;;23.80;51.70;;;;;;5066812;28;20028;-61
2021/04/13 03:10:16;;;;;;;6.15;1.00;;;23.80;51.20;;;;;;5067427;28;20036;-59
2021/04/13 03:12:48;;;;;;;3.85;1.20;;;23.90;51.60;;;;;;5068093;28;20033;-63
2021/04/13 03:15:20;;;;;;;5.07;1.50;;;23.90;50.60;;;;;;5061891;28;20025;-62
2021/04/13 03:17:51;;;;;;;2.97;1.10;;;23.90;50.80;;;;;;5064989;28;20058;-61
2021/04/13 03:20:29;;;;;;;3.92;1.23;;;23.90;52.00;;;;;;5067492;28;20036;-64
2021/04/13 03:23:01;;;;;;;3.42;1.38;;;24.00;51.80;;;;;;5066016;28;20368;-62
2021/04/13 03:25:37;;;;;;;5.95;1.52;;;23.90;51.60;;;;;;5061970;28;20768;-65
2021/04/13 03:28:07;;;;;;;6.03;1.40;;;23.90;52.20;;;;;;5068513;28;20054;-61
2021/04/13 03:30:38;;;;;;;4.03;1.40;;;23.90;51.60;;;;;;5066076;28;20037;-63
2021/04/13 03:33:06;;;;;;;5.13;1.20;;;24.00;51.90;;;;;;5065783;28;20027;-61
2021/04/13 03:35:35;;;;;;;4.05;1.50;;;24.10;50.90;;;;;;5062439;28;20033;-64
2021/04/13 03:38:06;;;;;;;8.27;1.80;;;24.10;52.20;;;;;;5069350;28;20062;-62
2021/04/13 03:40:37;;;;;;;3.88;1.63;;;24.10;51.60;;;;;;5067569;28;20042;-57
2021/04/13 03:43:07;;;;;;;3.10;1.42;;;24.20;51.40;;;;;;5067584;28;20036;-55
2021/04/13 03:45:36;;;;;;;6.82;1.98;;;24.20;50.90;;;;;;5062110;28;20036;-62
2021/04/13 03:48:13;;;;;;;6.57;1.75;;;24.30;51.40;;;;;;5068169;28;20051;-63
2021/04/13 03:50:41;;;;;;;8.38;1.58;;;24.30;51.30;;;;;;5068475;28;20127;-57
2021/04/13 03:53:15;;;;;;;5.40;1.60;;;24.30;51.30;;;;;;5068463;28;20126;-63
2021/04/13 03:56:08;;;;;;;4.45;1.08;;;24.40;51.20;;;;;;5062348;28;20099;-62
2021/04/13 03:58:42;;;;;;;2.63;1.13;;;24.50;52.00;;;;;;5067732;28;20028;-57
2021/04/13 04:01:13;;;;;;;6.30;2.30;;;24.40;52.20;;;;;;5067402;28;20028;-64
2021/04/13 04:03:45;;;;;;;11.68;1.17;;;24.50;51.00;;;;;;5066317;28;20028;-64
2021/04/13 04:06:57;;;;;;;5.10;1.55;;;24.60;52.00;;;;;;5029768;28;20047;-62
2021/04/13 04:09:31;;;;;;;3.28;1.30;;;24.60;51.70;;;;;;5067503;28;20060;-63
2021/04/13 04:12:01;;;;;;;1.75;1.00;;;24.70;51.90;;;;;;5064140;28;20025;-59
2021/04/13 04:14:31;;;;;;;3.67;1.20;;;24.70;50.90;;;;;;5066902;28;20028;-62
2021/04/13 04:17:14;;;;;;;7.43;1.77;;;24.70;51.40;;;;;;5062892;28;20521;-61
2021/04/13 04:19:53;;;;;;;4.00;1.55;;;24.70;51.80;;;;;;5067491;28;20037;-58
2021/04/13 04:22:22;;;;;;;3.65;1.27;;;24.70;51.90;;;;;;5067281;28;20028;-64
2021/04/13 04:24:49;;;;;;;3.33;1.10;;;24.70;51.80;;;;;;5066424;28;20090;-65
2021/04/13 04:27:23;;;;;;;4.57;1.40;;;24.80;52.10;;;;;;5063012;28;20751;-62
2021/04/13 04:30:05;;;;;;;2.38;1.05;;;24.90;51.90;;;;;;5067658;28;20087;-63
2021/04/13 04:32:33;;;;;;;3.03;1.45;;;24.90;51.90;;;;;;5065952;28;20051;-60
2021/04/13 04:35:06;;;;;;;4.00;1.33;;;25.00;51.60;;;;;;5067865;28;20368;-61
2021/04/13 04:37:35;;;;;;;3.97;1.30;;;25.00;51.30;;;;;;5068629;28;20131;-58
2021/04/13 04:40:20;;;;;;;3.10;1.58;;;25.00;51.10;;;;;;5074194;28;20024;-61
2021/04/13 04:43:44;;;;;;;3.63;1.45;;;24.90;51.10;;;;;;5069645;28;20101;-58
2021/04/13 04:46:39;;;;;;;1.52;0.80;;;25.00;51.70;;;;;;5022055;28;20597;-61
2021/04/13 04:49:12;;;;;;;2.42;1.13;;;25.00;52.00;;;;;;5070379;28;20040;-66
2021/04/13 04:51:41;;;;;;;4.03;1.00;;;25.10;51.20;;;;;;5069995;28;20394;-68
2021/04/13 04:54:12;;;;;;;3.28;1.33;;;25.10;51.70;;;;;;5068101;28;20028;-62
2021/04/13 04:56:39;;;;;;;3.97;1.40;;;25.20;51.40;;;;;;5066229;28;20028;-65
2021/04/13 04:59:06;;;;;;;2.88;1.15;;;25.00;51.20;;;;;;5071140;28;20270;-62
2021/04/13 05:01:34;;;;;;;8.68;1.25;;;25.10;51.40;;;;;;5070295;28;20119;-66
2021/04/13 05:04:01;;;;;;;7.97;1.38;;;25.10;50.90;;;;;;5070039;28;20017;-62
2021/04/13 05:06:29;;;;;;;3.35;1.27;;;25.00;50.90;;;;;;5071584;28;20032;-59
2021/04/13 05:09:18;;;;;;;6.50;1.20;;;24.90;52.60;;;;;;5071641;28;20518;-63
2021/04/13 05:11:46;;;;;;;5.70;1.67;;;24.90;51.60;;;;;;5070866;28;20047;-66
2021/04/13 05:14:14;;;;;;;3.17;1.40;;;25.00;51.30;;;;;;5071174;28;20020;-60
2021/04/13 05:16:41;;;;;;;3.65;1.40;;;25.00;51.50;;;;;;5071455;28;20036;-61
2021/04/13 05:19:09;;;;;;;3.33;1.00;;;24.90;52.80;;;;;;5071207;28;20035;-64
2021/04/13 05:21:36;;;;;;;3.65;1.30;;;24.90;52.50;;;;;;5071207;28;20035;-62
2021/04/13 05:24:04;;;;;;;3.70;1.15;;;24.90;52.60;;;;;;5069758;28;20020;-65
2021/04/13 05:26:31;;;;;;;1.73;0.85;;;24.90;52.70;;;;;;5070834;28;20043;-61
2021/04/13 05:28:59;;;;;;;4.40;1.13;;;24.90;53.00;;;;;;5070791;28;20379;-65
2021/04/13 05:31:26;;;;;;;2.38;1.30;;;24.90;52.30;;;;;;5071031;28;20464;-63
2021/04/13 05:33:53;;;;;;;5.22;1.77;;;24.90;52.90;;;;;;5071151;28;20032;-61
2021/04/13 05:36:21;;;;;;;4.05;1.60;;;24.80;52.50;;;;;;5070699;28;20028;-61
2021/04/13 05:38:50;;;;;;;3.53;1.10;;;24.70;52.50;;;;;;5070592;28;20029;-69
2021/04/13 05:41:21;;;;;;;8.13;1.38;;;24.60;52.70;;;;;;5070757;28;20033;-67
2021/04/13 05:43:48;;;;;;;8.82;1.60;;;24.70;52.50;;;;;;5070737;28;20025;-63
2021/04/13 05:46:20;;;;;;;4.22;1.05;;;24.70;52.40;;;;;;5070821;28;20082;-66
2021/04/13 05:48:47;;;;;;;;;;;24.60;53.70;;;;;;5070913;28;20078;-66
2021/04/13 05:51:15;;;;;;;3.70;1.50;;;24.60;52.80;;;;;;5068083;28;19930;-63
2021/04/13 05:53:45;;;;;;;6.03;1.17;;;24.60;53.80;;;;;;5068871;28;20487;-62
2021/04/13 05:56:22;;;;;;;3.45;1.13;;;24.60;53.30;;;;;;5070141;28;20064;-63
2021/04/13 05:58:51;;;;;;;3.17;1.10;;;24.50;53.50;;;;;;5070174;28;20275;-64
2021/04/13 06:01:20;;;;;;;5.85;1.17;;;24.50;53.20;;;;;;5069735;28;20100;-62
2021/04/13 06:03:51;;;;;;;3.75;1.35;;;24.50;53.40;;;;;;5069983;28;20040;-64
2021/04/13 06:06:19;;;;;;;7.68;1.40;;;24.50;53.80;;;;;;5069905;28;20170;-64
2021/04/13 06:09:12;;;;;;;6.28;1.80;;;24.40;53.50;;;;;;5067393;28;20160;-60
2021/04/13 06:11:40;;;;;;;2.60;1.40;;;24.30;53.80;;;;;;5069635;28;20040;-63
2021/04/13 06:14:08;;;;;;;5.90;1.25;;;24.30;54.50;;;;;;5069690;28;20033;-65
2021/04/13 06:16:38;;;;;;;5.18;1.20;;;24.20;53.90;;;;;;5070087;28;20021;-66
2021/04/13 06:19:07;;;;;;;4.10;1.15;;;24.20;54.60;;;;;;5067864;28;20036;-64
2021/04/13 06:21:37;;;;;;;5.68;2.63;;;24.10;54.30;;;;;;5069203;28;20016;-66
2021/04/13 06:24:05;;;;;;;2.60;1.50;;;24.10;54.40;;;;;;5065912;28;20038;-63
2021/04/13 06:26:33;;;;;;;5.20;1.33;;;24.00;54.50;;;;;;5066417;28;20025;-65
2021/04/13 06:29:01;;;;;;;2.20;0.90;;;23.90;54.70;;;;;;5068491;28;20472;-62
2021/04/13 06:31:28;;;;;;;5.18;1.20;;;23.90;55.80;;;;;;5069157;28;20495;-65
2021/04/13 06:33:55;;;;;;;2.97;1.25;;;23.80;55.90;;;;;;5066137;28;20024;-65
2021/04/13 06:36:26;;;;;;;3.33;1.00;;;23.70;55.60;;;;;;5067745;28;20028;-66
2021/04/13 06:38:56;;;;;;;3.47;1.17;;;23.70;55.70;;;;;;5067123;28;20029;-66
2021/04/13 06:41:59;;;;;;;4.82;1.92;;;23.60;55.70;;;;;;5066499;28;20433;-62
2021/04/13 06:45:00;;;;;;;9.57;2.00;;;23.50;56.40;;;;;;5062517;28;20025;-62
2021/04/13 06:48:06;;;;;;;6.57;1.10;;;23.40;56.20;;;;;;5067644;28;20028;-54
2021/04/13 06:50:37;;;;;;;4.55;1.40;;;23.30;57.10;;;;;;5067726;28;20064;-51
2021/04/13 06:53:44;;;;;;;3.17;0.73;;;23.30;57.20;;;;;;5068365;28;20029;-56
2021/04/13 06:56:22;;;;;;;4.65;1.63;;;23.30;57.10;;;;;;5065032;28;20036;-60
2021/04/13 06:59:08;;;;;;;5.40;1.45;;;23.10;57.30;;;;;;5068969;28;20029;-54
2021/04/13 07:01:49;;;;;;;4.10;1.20;;;23.10;57.70;;;;;;5066635;28;20030;-52
2021/04/13 07:04:24;;;;;;;7.10;1.70;;;23.00;57.20;;;;;;5064405;28;20026;-56
2021/04/13 07:07:13;;;;;;;9.73;2.03;;;22.10;57.90;;;;;;5048604;28;20101;-60
2021/04/13 07:09:46;;;;;;;10.75;2.33;;;21.70;60.00;;;;;;5047597;28;20068;-57
2021/04/13 07:12:31;;;;;;;6.90;2.03;;;21.30;60.80;;;;;;5060746;28;20060;-53
2021/04/13 07:15:32;;;;;;;7.63;2.13;;;21.30;62.70;;;;;;5067952;28;20048;-59
2021/04/13 07:18:17;;;;;;;10.85;2.25;;;21.40;62.40;;;;;;5068095;28;20162;-64
2021/04/13 07:20:56;;;;;;;5.90;2.63;;;21.20;63.20;;;;;;5066441;28;20024;-53
2021/04/13 07:23:31;;;;;;;6.07;3.47;;;21.10;63.30;;;;;;5067810;28;20027;-56
2021/04/13 07:26:20;;;;;;;12.80;3.15;;;20.90;64.30;;;;;;5067249;28;20071;-54
2021/04/13 07:28:57;;;;;;;11.65;4.50;;;20.60;65.00;;;;;;5068894;28;20504;-57
2021/04/13 07:31:39;;;;;;;9.32;5.10;;;20.80;64.70;;;;;;5068730;28;20044;-58
2021/04/13 07:34:07;;;;;;;11.68;2.08;;;20.90;65.50;;;;;;5068425;28;20115;-62
2021/04/13 07:37:36;;;;;;;9.98;4.00;;;20.30;67.10;;;;;;5068633;28;20033;-54
2021/04/13 07:40:27;;;;;;;8.90;2.35;;;20.50;67.30;;;;;;5056188;28;20024;-57
2021/04/13 07:43:23;;;;;;;10.93;4.75;;;20.30;68.10;;;;;;5063995;28;20056;-61
2021/04/13 07:46:12;;;;;;;8.95;4.88;;;20.40;67.70;;;;;;5065534;28;20037;-62
2021/04/13 07:48:57;;;;;;;7.85;5.15;;;20.60;67.00;;;;;;5067811;28;20036;-51
2021/04/13 07:51:37;;;;;;;13.57;10.20;;;20.70;66.90;;;;;;5066699;28;20136;-56
2021/04/13 07:54:47;;;;;;;19.25;7.18;;;20.80;66.70;;;;;;5068474;28;20375;-53
2021/04/13 07:57:40;;;;;;;10.27;3.50;;;20.90;66.40;;;;;;5067265;28;20028;-59
2021/04/13 08:00:13;;;;;;;;;;;20.70;67.20;;;;;;5069198;28;20468;-53
2021/04/13 08:02:46;;;;;;;9.05;2.75;;;20.60;67.60;;;;;;5066999;28;20432;-56
2021/04/13 08:05:33;;;;;;;8.63;2.20;;;20.50;67.70;;;;;;5068409;28;20021;-55
2021/04/13 08:08:22;;;;;;;9.27;2.28;;;20.40;68.60;;;;;;5068875;28;20095;-52
2021/04/13 08:10:49;;;;;;;10.38;3.15;;;20.50;68.80;;;;;;5071939;28;20101;-58
2021/04/13 08:13:30;;;;;;;8.07;2.10;;;20.50;68.90;;;;;;5072246;28;20099;-54
2021/04/13 08:15:58;;;;;;;8.80;1.83;;;20.40;69.50;;;;;;5072118;28;20039;-61
2021/04/13 08:18:33;;;;;;;17.48;2.83;;;20.30;70.00;;;;;;5069896;28;20025;-59
2021/04/13 08:21:26;;;;;;;14.32;2.83;;;20.40;70.60;;;;;;5071194;28;20470;-55
2021/04/13 08:23:54;;;;;;;9.40;2.72;;;20.40;70.00;;;;;;5071941;28;20360;-54
2021/04/13 08:26:33;;;;;;;7.38;2.28;;;20.50;70.50;;;;;;5071859;28;20039;-58
2021/04/13 08:29:37;;;;;;;7.35;2.67;;;20.60;70.10;;;;;;5071838;28;20069;-61
2021/04/13 08:32:51;;;;;;;9.27;2.60;;;20.60;69.80;;;;;;5071920;28;20025;-56
2021/04/13 08:35:36;;;;;;;12.88;3.00;;;20.60;70.20;;;;;;5071804;28;20321;-59
2021/04/13 08:38:29;;;;;;;11.40;2.53;;;20.50;69.70;;;;;;5071652;28;20037;-61
2021/04/13 08:41:11;;;;;;;;;;;20.50;70.90;;;;;;5072140;28;20029;-58
2021/04/13 08:43:51;;;;;;;8.98;2.70;;;20.50;70.10;;;;;;5071775;28;19931;-62
2021/04/13 08:46:18;;;;;;;10.18;2.88;;;20.50;71.30;;;;;;5071519;28;20040;-59
2021/04/13 08:48:49;;;;;;;8.60;2.63;;;20.60;70.70;;;;;;5071839;28;20025;-61
2021/04/13 08:51:42;;;;;;;13.57;2.63;;;20.70;70.50;;;;;;5070738;28;20474;-57
2021/04/13 08:54:32;;;;;;;8.68;2.67;;;20.70;70.20;;;;;;5060321;28;20486;-59
2021/04/13 08:57:04;;;;;;;8.10;2.97;;;20.80;70.60;;;;;;5065654;28;20052;-54
2021/04/13 08:59:52;;;;;;;8.20;2.60;;;20.80;70.90;;;;;;5072614;28;20372;-57
2021/04/13 09:02:36;;;;;;;8.77;2.20;;;20.80;70.50;;;;;;5064330;28;20144;-53
2021/04/13 09:05:11;;;;;;;13.45;3.30;;;20.90;70.50;;;;;;5063120;28;20036;-57
2021/04/13 09:07:48;;;;;;;11.15;2.78;;;20.90;70.30;;;;;;5066201;28;20035;-55
2021/04/13 09:10:43;;;;;;;12.77;2.90;;;20.90;70.10;;;;;;5067467;28;20040;-52
2021/04/13 09:13:16;;;;;;;7.72;2.50;;;21.00;69.90;;;;;;5068780;28;20405;-57
2021/04/13 09:16:03;;;;;;;6.57;2.70;;;21.00;69.80;;;;;;5063859;28;20115;-59
2021/04/13 09:18:45;;;;;;;8.38;3.08;;;21.00;69.70;;;;;;5064732;28;20028;-65
2021/04/13 09:21:23;;;;;;;12.77;2.88;;;21.00;69.20;;;;;;5067155;28;20036;-57
2021/04/13 09:24:02;;;;;;;11.20;3.33;;;21.00;69.50;;;;;;5064382;28;20028;-63
2021/04/13 09:26:39;;;;;;;9.38;3.08;;;21.00;69.40;;;;;;5064973;28;20028;-54
2021/04/13 09:29:28;;;;;;;9.05;2.90;;;21.00;69.30;;;;;;5069503;28;20103;-58
2021/04/13 09:31:56;;;;;;;6.32;2.45;;;21.00;69.20;;;;;;5069599;28;20171;-59
2021/04/13 09:34:45;;;;;;;10.88;2.88;;;21.00;69.10;;;;;;5063832;28;20500;-55
2021/04/13 09:37:38;;;;;;;13.75;2.75;;;21.00;69.00;;;;;;5069244;28;20040;-57
2021/04/13 09:40:14;;;;;;;7.47;2.20;;;21.00;68.90;;;;;;5067116;28;20035;-57
2021/04/13 09:43:18;;;;;;;7.68;2.55;;;21.00;69.00;;;;;;5068289;28;20033;-59
2021/04/13 09:46:09;;;;;;;9.52;2.63;;;21.00;68.90;;;;;;5034213;28;20111;-60
2021/04/13 09:48:55;;;;;;;9.77;2.67;;;21.00;68.80;;;;;;5069546;28;20064;-56
2021/04/13 09:51:42;;;;;;;15.02;2.85;;;21.00;68.80;;;;;;5068558;28;20047;-61
2021/04/13 09:54:47;;;;;;;7.57;2.20;;;21.00;68.80;;;;;;5064249;28;20048;-55
2021/04/13 09:57:49;;;;;;;9.20;2.53;;;21.00;69.00;;;;;;5055208;28;20036;-50
2021/04/13 10:00:36;;;;;;;8.90;2.10;;;21.00;68.80;;;;;;5014200;28;20036;-53
2021/04/13 10:03:21;;;;;;;10.20;2.55;;;21.00;68.80;;;;;;5065018;28;20028;-54
2021/04/13 10:05:50;;;;;;;11.07;2.65;;;21.00;68.80;;;;;;5063066;28;20048;-55
2021/04/13 10:08:23;;;;;;;13.00;2.35;;;20.90;68.90;;;;;;5068142;28;20052;-51
2021/04/13 10:11:17;;;;;;;8.88;3.33;;;20.90;69.10;;;;;;5067093;28;20040;-51
2021/04/13 10:14:02;;;;;;;9.40;2.13;;;20.90;69.30;;;;;;5065830;28;20032;-53
2021/04/13 10:16:38;;;;;;;9.13;2.63;;;20.90;69.40;;;;;;5063445;28;20032;-53
2021/04/13 10:19:29;;;;;;;5.32;1.80;;;20.90;69.50;;;;;;5065275;28;20032;-52
2021/04/13 10:22:09;;;;;;;5.20;2.25;;;20.90;69.80;;;;;;5057024;28;20072;-52
2021/04/13 10:25:09;;;;;;;9.80;2.15;;;20.90;70.10;;;;;;5063283;28;20044;-57
2021/04/13 10:27:59;;;;;;;6.22;2.85;;;20.80;70.10;;;;;;5065333;28;20052;-55
2021/04/13 10:31:04;;;;;;;12.75;2.40;;;20.80;70.20;;;;;;5066496;28;20390;-54
2021/04/13 10:33:58;;;;;;;9.73;2.22;;;20.80;70.60;;;;;;5063596;28;20253;-52
2021/04/13 10:36:52;;;;;;;5.75;2.13;;;20.80;71.80;;;;;;5062518;28;20047;-56
2021/04/13 10:39:33;;;;;;;8.07;2.13;;;20.80;72.50;;;;;;5068475;28;20032;-57
2021/04/13 10:42:22;;;;;;;9.85;2.78;;;20.80;71.60;;;;;;5064186;28;20032;-55
2021/04/13 10:45:11;;;;;;;6.50;2.33;;;20.80;71.20;;;;;;5063122;28;20397;-57
2021/04/13 10:47:58;;;;;;;8.85;2.40;;;20.90;71.20;;;;;;5068759;28;20032;-56
2021/04/13 10:50:51;;;;;;;11.13;2.97;;;20.90;71.20;;;;;;5067999;28;20041;-57
2021/04/13 10:53:44;;;;;;;7.22;2.17;;;20.90;71.20;;;;;;5065433;28;20111;-53
2021/04/13 10:56:29;;;;;;;3.90;1.88;;;20.90;71.10;;;;;;5029931;28;20044;-57
2021/04/13 10:59:33;;;;;;;7.05;2.45;;;20.90;71.10;;;;;;5066912;28;20458;-55
2021/04/13 11:02:03;;;;;;;11.65;2.03;;;20.90;70.90;;;;;;5067067;28;20028;-63
2021/04/13 11:04:51;;;;;;;12.73;2.53;;;20.90;71.10;;;;;;5062752;28;20028;-66
2021/04/13 11:07:55;;;;;;;3.45;1.75;;;20.90;71.10;;;;;;5064889;28;20021;-52
2021/04/13 11:10:44;;;;;;;4.72;1.92;;;20.80;71.10;;;;;;5066358;28;20064;-54
2021/04/13 11:13:52;;;;;;;6.63;2.30;;;20.80;71.10;;;;;;5064673;28;20058;-52
2021/04/13 11:16:43;;;;;;;6.85;2.13;;;20.80;71.00;;;;;;5014233;28;20766;-48
2021/04/13 11:19:14;;;;;;;8.80;2.50;;;20.80;71.00;;;;;;5064887;28;20025;-49
2021/04/13 11:22:13;;;;;;;9.30;2.08;;;20.70;71.00;;;;;;5067345;28;20032;-58
2021/04/13 11:24:53;;;;;;;5.35;2.47;;;20.70;71.00;;;;;;5060260;28;20141;-54
2021/04/13 11:27:21;;;;;;;7.85;2.83;;;20.70;70.90;;;;;;5067757;28;20021;-54
2021/04/13 11:30:16;;;;;;;10.38;2.30;;;20.70;71.00;;;;;;5067673;28;20028;-55
2021/04/13 11:33:12;;;;;;;10.65;2.17;;;20.70;70.90;;;;;;5064348;28;20036;-58
2021/04/13 11:35:53;;;;;;;7.35;1.95;;;20.70;70.90;;;;;;5059507;28;20030;-60
2021/04/13 11:38:36;;;;;;;7.60;1.83;;;20.60;70.90;;;;;;5067178;28;20493;-55
2021/04/13 11:41:24;;;;;;;4.32;1.75;;;20.60;70.90;;;;;;5063643;28;20028;-53
2021/04/13 11:43:55;;;;;;;5.07;1.58;;;20.60;70.80;;;;;;5070076;28;20427;-53
2021/04/13 11:46:47;;;;;;;7.03;2.80;;;20.60;70.70;;;;;;5065346;28;20971;-55
2021/04/13 11:49:15;;;;;;;4.78;1.40;;;20.60;70.70;;;;;;5029313;28;20044;-62
2021/04/13 11:52:05;;;;;;;4.35;1.77;;;20.60;70.60;;;;;;5070126;28;20794;-54
2021/04/13 11:54:37;;;;;;;2.17;1.42;;;20.60;70.60;;;;;;5066007;28;20513;-56
2021/04/13 11:57:39;;;;;;;;;;;20.60;70.60;;;;;;5068364;28;20039;-49
2021/04/13 12:00:19;;;;;;;5.05;1.77;;;20.60;70.60;;;;;;5008900;28;19909;-55
2021/04/13 12:03:00;;;;;;;5.50;1.75;;;20.60;70.50;;;;;;5063543;28;20044;-55
2021/04/13 12:05:29;;;;;;;8.50;2.35;;;20.60;70.90;;;;;;5066677;28;20066;-56
2021/04/13 12:07:57;;;;;;;5.38;1.88;;;20.60;70.60;;;;;;5071204;28;20166;-54
2021/04/13 12:10:34;;;;;;;3.33;1.77;;;20.60;70.60;;;;;;5071087;28;20075;-53
2021/04/13 12:13:07;;;;;;;5.50;1.83;;;20.60;70.60;;;;;;5070565;28;20024;-53
2021/04/13 12:15:37;;;;;;;3.20;1.35;;;20.50;70.60;;;;;;5066435;28;20477;-52
2021/04/13 12:18:36;;;;;;;5.63;1.73;;;20.50;70.60;;;;;;5070307;28;20031;-56
2021/04/13 12:21:25;;;;;;;4.55;1.63;;;20.50;70.50;;;;;;5071211;28;20036;-54
2021/04/13 12:23:58;;;;;;;4.05;1.98;;;20.50;70.40;;;;;;5067870;28;20115;-60
2021/04/13 12:26:35;;;;;;;8.50;2.08;;;20.50;70.50;;;;;;5065772;28;20039;-58
2021/04/13 12:29:35;;;;;;;5.60;2.05;;;20.50;70.40;;;;;;5071244;28;20059;-58
2021/04/13 12:32:14;;;;;;;3.88;1.83;;;20.50;70.40;;;;;;5071785;28;20098;-51
2021/04/13 12:34:49;;;;;;;4.32;1.70;;;20.50;70.40;;;;;;5067432;28;20040;-62
2021/04/13 12:37:49;;;;;;;3.42;1.60;;;20.50;70.40;;;;;;5071533;28;20025;-63
2021/04/13 12:40:22;;;;;;;5.43;1.80;;;20.50;70.20;;;;;;5064589;28;20055;-60
2021/04/13 12:42:53;;;;;;;3.08;1.35;;;20.50;70.30;;;;;;5071838;28;20115;-61
2021/04/13 12:45:21;;;;;;;3.63;1.55;;;20.50;70.30;;;;;;5068275;28;20024;-59
2021/04/13 12:47:53;;;;;;;4.55;1.90;;;20.50;70.40;;;;;;5070193;28;20037;-55
2021/04/13 12:50:34;;;;;;;5.25;1.60;;;20.50;70.30;;;;;;5071415;28;20040;-59
2021/04/13 12:53:09;;;;;;;3.95;1.80;;;20.50;70.40;;;;;;5070155;28;20032;-54
2021/04/13 12:55:36;;;;;;;4.50;1.90;;;20.50;70.40;;;;;;5065928;28;20029;-59
2021/04/13 12:58:10;;;;;;;4.68;1.70;;;20.50;70.40;;;;;;5069971;28;20024;-52
2021/04/13 13:00:44;;;;;;;7.80;2.10;;;20.50;70.40;;;;;;5070099;28;20119;-56
2021/04/13 13:03:17;;;;;;;2.92;1.60;;;20.50;70.90;;;;;;5066120;28;20332;-54
2021/04/13 13:05:45;;;;;;;3.38;1.50;;;20.40;70.20;;;;;;5062754;28;20120;-52
2021/04/13 13:08:21;;;;;;;2.95;1.33;;;20.50;70.30;;;;;;5066297;28;20029;-54
2021/04/13 13:10:57;;;;;;;4.47;1.42;;;20.40;70.30;;;;;;5069166;28;20208;-51
2021/04/13 13:13:30;;;;;;;3.45;1.67;;;20.40;70.20;;;;;;5069015;28;20029;-54
2021/04/13 13:15:58;;;;;;;3.90;1.65;;;20.40;70.40;;;;;;5064203;28;20505;-59
2021/04/13 13:18:26;;;;;;;4.80;1.38;;;20.40;70.30;;;;;;5068941;28;20492;-54
2021/04/13 13:21:14;;;;;;;2.38;1.02;;;20.40;70.40;;;;;;5070111;28;20214;-63
2021/04/13 13:23:47;;;;;;;3.97;1.48;;;20.40;70.40;;;;;;5071017;28;20094;-64
2021/04/13 13:26:15;;;;;;;5.05;1.77;;;20.40;70.40;;;;;;5069184;28;20063;-63
2021/04/13 13:28:45;;;;;;;4.05;1.48;;;20.30;70.40;;;;;;5069776;28;20032;-65
2021/04/13 13:31:17;;;;;;;6.25;1.67;;;20.30;70.50;;;;;;5070605;28;20050;-55
2021/04/13 13:33:46;;;;;;;4.63;1.35;;;20.30;70.50;;;;;;5070723;28;20063;-65
2021/04/13 13:36:15;;;;;;;3.90;1.63;;;20.30;70.50;;;;;;5070287;28;20395;-64
2021/04/13 13:38:46;;;;;;;7.13;1.50;;;20.20;70.50;;;;;;5066518;28;20037;-58
2021/04/13 13:41:19;;;;;;;2.55;1.48;;;20.20;70.50;;;;;;5069763;28;20370;-59
2021/04/13 13:43:47;;;;;;;3.70;1.40;;;20.20;70.60;;;;;;5066885;28;20035;-55
2021/04/13 13:46:23;;;;;;;7.63;1.73;;;20.20;70.60;;;;;;5068335;28;20037;-58
2021/04/13 13:48:51;;;;;;;4.55;1.75;;;20.20;70.70;;;;;;5068479;28;20035;-61